sensor_id;sensor_type;location;lat;lon;timestamp;P1;durP1;ratioP1;P2;durP2;ratioP2
61036;SDS011;57313;47.040;15.498;2022-07-11T00:01:05;6.53;;;2.30;;
61036;SDS011;57313;47.040;15.498;2022-07-11T00:03:32;7.03;;;2.58;;
61036;SDS011;57313;47.040;15.498;2022-07-11T00:06:01;6.60;;;2.38;;
61036;SDS011;57313;47.040;15.498;2022-07-11T00:08:28;9.85;;;2.42;;
61036;SDS011;57313;47.040;15.498;2022-07-11T00:10:55;7.28;;;2.22;;
61036;SDS011;57313;47.040;15.498;2022-07-11T00:13:23;8.05;;;2.30;;
61036;SDS011;57313;47.040;15.498;2022-07-11T00:15:51;7.43;;;2.25;;
61036;SDS011;57313;47.040;15.498;2022-07-11T00:18:18;6.50;;;2.00;;
61036;SDS011;57313;47.040;15.498;2022-07-11T00:20:46;5.80;;;2.20;;
61036;SDS011;57313;47.040;15.498;2022-07-11T00:23:15;8.40;;;2.15;;
61036;SDS011;57313;47.040;15.498;2022-07-11T00:25:42;9.15;;;2.60;;
61036;SDS011;57313;47.040;15.498;2022-07-11T00:28:09;12.68;;;2.33;;
61036;SDS011;57313;47.040;15.498;2022-07-11T00:30:36;6.32;;;2.00;;
61036;SDS011;57313;47.040;15.498;2022-07-11T00:33:03;6.60;;;2.20;;
61036;SDS011;57313;47.040;15.498;2022-07-11T00:35:31;7.15;;;2.30;;
61036;SDS011;57313;47.040;15.498;2022-07-11T00:37:58;7.00;;;2.35;;
61036;SDS011;57313;47.040;15.498;2022-07-11T00:40:27;5.97;;;2.30;;
61036;SDS011;57313;47.040;15.498;2022-07-11T00:42:54;9.50;;;2.38;;
61036;SDS011;57313;47.040;15.498;2022-07-11T00:45:22;7.32;;;2.65;;
61036;SDS011;57313;47.040;15.498;2022-07-11T00:47:49;6.13;;;2.33;;
61036;SDS011;57313;47.040;15.498;2022-07-11T00:50:16;10.40;;;2.67;;
61036;SDS011;57313;47.040;15.498;2022-07-11T00:52:44;7.00;;;2.47;;
61036;SDS011;57313;47.040;15.498;2022-07-11T00:55:11;6.88;;;3.00;;
61036;SDS011;57313;47.040;15.498;2022-07-11T00:57:41;7.95;;;2.80;;
61036;SDS011;57313;47.040;15.498;2022-07-11T01:00:09;7.50;;;2.28;;
61036;SDS011;57313;47.040;15.498;2022-07-11T01:02:37;8.63;;;2.60;;
61036;SDS011;57313;47.040;15.498;2022-07-11T01:05:04;6.93;;;2.63;;
61036;SDS011;57313;47.040;15.498;2022-07-11T01:07:32;6.38;;;2.25;;
61036;SDS011;57313;47.040;15.498;2022-07-11T01:10:00;6.60;;;2.15;;
61036;SDS011;57313;47.040;15.498;2022-07-11T01:12:28;7.00;;;2.58;;
61036;SDS011;57313;47.040;15.498;2022-07-11T01:14:58;5.75;;;2.13;;
61036;SDS011;57313;47.040;15.498;2022-07-11T01:17:28;6.10;;;2.42;;
61036;SDS011;57313;47.040;15.498;2022-07-11T01:19:57;7.05;;;2.90;;
61036;SDS011;57313;47.040;15.498;2022-07-11T01:22:25;7.05;;;2.50;;
61036;SDS011;57313;47.040;15.498;2022-07-11T01:24:56;7.40;;;2.75;;
61036;SDS011;57313;47.040;15.498;2022-07-11T01:27:24;8.95;;;2.60;;
61036;SDS011;57313;47.040;15.498;2022-07-11T01:29:52;10.35;;;2.58;;
61036;SDS011;57313;47.040;15.498;2022-07-11T01:32:19;8.13;;;2.70;;
61036;SDS011;57313;47.040;15.498;2022-07-11T01:34:47;7.55;;;2.78;;
61036;SDS011;57313;47.040;15.498;2022-07-11T01:37:15;7.38;;;2.40;;
61036;SDS011;57313;47.040;15.498;2022-07-11T01:39:43;8.23;;;2.70;;
61036;SDS011;57313;47.040;15.498;2022-07-11T01:42:12;10.43;;;2.72;;
61036;SDS011;57313;47.040;15.498;2022-07-11T01:44:39;6.53;;;2.58;;
61036;SDS011;57313;47.040;15.498;2022-07-11T01:47:07;9.00;;;2.80;;
61036;SDS011;57313;47.040;15.498;2022-07-11T01:49:34;8.57;;;2.90;;
61036;SDS011;57313;47.040;15.498;2022-07-11T01:52:02;7.03;;;2.70;;
61036;SDS011;57313;47.040;15.498;2022-07-11T01:54:31;8.02;;;2.75;;
61036;SDS011;57313;47.040;15.498;2022-07-11T01:56:59;7.97;;;2.72;;
61036;SDS011;57313;47.040;15.498;2022-07-11T01:59:28;8.88;;;2.50;;
61036;SDS011;57313;47.040;15.498;2022-07-11T02:01:55;9.00;;;2.70;;
61036;SDS011;57313;47.040;15.498;2022-07-11T02:04:23;6.68;;;2.63;;
61036;SDS011;57313;47.040;15.498;2022-07-11T02:06:51;7.10;;;2.78;;
61036;SDS011;57313;47.040;15.498;2022-07-11T02:09:19;7.72;;;2.58;;
61036;SDS011;57313;47.040;15.498;2022-07-11T02:11:47;7.20;;;2.38;;
61036;SDS011;57313;47.040;15.498;2022-07-11T02:14:14;6.95;;;2.58;;
61036;SDS011;57313;47.040;15.498;2022-07-11T02:16:43;7.65;;;2.58;;
61036;SDS011;57313;47.040;15.498;2022-07-11T02:19:11;5.43;;;2.33;;
61036;SDS011;57313;47.040;15.498;2022-07-11T02:21:39;8.68;;;2.65;;
61036;SDS011;57313;47.040;15.498;2022-07-11T02:24:06;13.60;;;3.10;;
61036;SDS011;57313;47.040;15.498;2022-07-11T02:26:34;6.57;;;2.38;;
61036;SDS011;57313;47.040;15.498;2022-07-11T02:29:01;7.78;;;2.20;;
61036;SDS011;57313;47.040;15.498;2022-07-11T02:31:28;6.30;;;2.20;;
61036;SDS011;57313;47.040;15.498;2022-07-11T02:33:57;7.30;;;2.78;;
61036;SDS011;57313;47.040;15.498;2022-07-11T02:36:25;7.47;;;2.53;;
61036;SDS011;57313;47.040;15.498;2022-07-11T02:38:52;7.32;;;2.72;;
61036;SDS011;57313;47.040;15.498;2022-07-11T02:41:20;6.88;;;2.30;;
61036;SDS011;57313;47.040;15.498;2022-07-11T02:43:48;6.40;;;2.50;;
61036;SDS011;57313;47.040;15.498;2022-07-11T02:46:15;6.50;;;2.38;;
61036;SDS011;57313;47.040;15.498;2022-07-11T02:48:43;8.93;;;2.92;;
61036;SDS011;57313;47.040;15.498;2022-07-11T02:51:13;5.70;;;2.22;;
61036;SDS011;57313;47.040;15.498;2022-07-11T02:53:40;6.45;;;2.20;;
61036;SDS011;57313;47.040;15.498;2022-07-11T02:56:09;8.23;;;2.75;;
61036;SDS011;57313;47.040;15.498;2022-07-11T02:58:36;8.27;;;2.65;;
61036;SDS011;57313;47.040;15.498;2022-07-11T03:01:05;7.70;;;2.45;;
61036;SDS011;57313;47.040;15.498;2022-07-11T03:03:32;12.40;;;3.10;;
61036;SDS011;57313;47.040;15.498;2022-07-11T03:06:00;8.75;;;2.85;;
61036;SDS011;57313;47.040;15.498;2022-07-11T03:08:29;7.13;;;2.50;;
61036;SDS011;57313;47.040;15.498;2022-07-11T03:10:56;6.70;;;2.47;;
61036;SDS011;57313;47.040;15.498;2022-07-11T03:13:32;7.13;;;2.33;;
61036;SDS011;57313;47.040;15.498;2022-07-11T03:16:00;5.43;;;2.00;;
61036;SDS011;57313;47.040;15.498;2022-07-11T03:18:27;6.22;;;2.22;;
61036;SDS011;57313;47.040;15.498;2022-07-11T03:20:55;23.13;;;7.75;;
61036;SDS011;57313;47.040;15.498;2022-07-11T03:23:23;47.90;;;14.63;;
61036;SDS011;57313;47.040;15.498;2022-07-11T03:25:51;9.35;;;2.92;;
61036;SDS011;57313;47.040;15.498;2022-07-11T03:28:18;6.78;;;2.78;;
61036;SDS011;57313;47.040;15.498;2022-07-11T03:30:46;5.88;;;2.08;;
61036;SDS011;57313;47.040;15.498;2022-07-11T03:33:14;31.60;;;13.82;;
61036;SDS011;57313;47.040;15.498;2022-07-11T03:35:41;18.65;;;6.82;;
61036;SDS011;57313;47.040;15.498;2022-07-11T03:38:09;10.02;;;3.53;;
61036;SDS011;57313;47.040;15.498;2022-07-11T03:40:38;11.63;;;4.28;;
61036;SDS011;57313;47.040;15.498;2022-07-11T03:43:07;10.55;;;3.75;;
61036;SDS011;57313;47.040;15.498;2022-07-11T03:45:34;7.53;;;2.58;;
61036;SDS011;57313;47.040;15.498;2022-07-11T03:48:02;7.43;;;3.22;;
61036;SDS011;57313;47.040;15.498;2022-07-11T03:50:30;8.35;;;2.65;;
61036;SDS011;57313;47.040;15.498;2022-07-11T03:52:58;7.20;;;2.50;;
61036;SDS011;57313;47.040;15.498;2022-07-11T03:55:26;11.45;;;2.63;;
61036;SDS011;57313;47.040;15.498;2022-07-11T03:57:54;8.15;;;2.90;;
61036;SDS011;57313;47.040;15.498;2022-07-11T04:00:23;10.93;;;2.40;;
61036;SDS011;57313;47.040;15.498;2022-07-11T04:02:50;7.25;;;2.42;;
61036;SDS011;57313;47.040;15.498;2022-07-11T04:05:18;6.05;;;2.00;;
61036;SDS011;57313;47.040;15.498;2022-07-11T04:07:45;9.77;;;2.33;;
61036;SDS011;57313;47.040;15.498;2022-07-11T04:10:13;6.68;;;2.17;;
61036;SDS011;57313;47.040;15.498;2022-07-11T04:12:40;8.25;;;2.78;;
61036;SDS011;57313;47.040;15.498;2022-07-11T04:15:08;7.40;;;2.40;;
61036;SDS011;57313;47.040;15.498;2022-07-11T04:17:37;7.07;;;2.70;;
61036;SDS011;57313;47.040;15.498;2022-07-11T04:20:04;8.68;;;2.08;;
61036;SDS011;57313;47.040;15.498;2022-07-11T04:22:32;8.63;;;2.90;;
61036;SDS011;57313;47.040;15.498;2022-07-11T04:24:59;7.07;;;2.50;;
61036;SDS011;57313;47.040;15.498;2022-07-11T04:27:27;10.35;;;2.20;;
61036;SDS011;57313;47.040;15.498;2022-07-11T04:29:57;6.50;;;2.38;;
61036;SDS011;57313;47.040;15.498;2022-07-11T04:32:25;8.57;;;2.50;;
61036;SDS011;57313;47.040;15.498;2022-07-11T04:34:54;6.25;;;2.30;;
61036;SDS011;57313;47.040;15.498;2022-07-11T04:37:21;8.43;;;2.40;;
61036;SDS011;57313;47.040;15.498;2022-07-11T04:39:48;8.32;;;2.55;;
61036;SDS011;57313;47.040;15.498;2022-07-11T04:42:16;7.28;;;2.30;;
61036;SDS011;57313;47.040;15.498;2022-07-11T04:44:43;8.20;;;2.60;;
61036;SDS011;57313;47.040;15.498;2022-07-11T04:47:11;5.78;;;2.35;;
61036;SDS011;57313;47.040;15.498;2022-07-11T04:49:38;8.60;;;2.50;;
61036;SDS011;57313;47.040;15.498;2022-07-11T04:52:08;6.60;;;2.60;;
61036;SDS011;57313;47.040;15.498;2022-07-11T04:54:35;5.90;;;2.17;;
61036;SDS011;57313;47.040;15.498;2022-07-11T04:57:03;8.25;;;3.28;;
61036;SDS011;57313;47.040;15.498;2022-07-11T04:59:31;10.23;;;2.40;;
61036;SDS011;57313;47.040;15.498;2022-07-11T05:01:58;11.20;;;2.60;;
61036;SDS011;57313;47.040;15.498;2022-07-11T05:04:27;9.27;;;2.55;;
61036;SDS011;57313;47.040;15.498;2022-07-11T05:06:54;6.82;;;2.60;;
61036;SDS011;57313;47.040;15.498;2022-07-11T05:09:23;6.88;;;2.70;;
61036;SDS011;57313;47.040;15.498;2022-07-11T05:11:51;10.88;;;2.95;;
61036;SDS011;57313;47.040;15.498;2022-07-11T05:14:19;8.80;;;2.78;;
61036;SDS011;57313;47.040;15.498;2022-07-11T05:16:47;8.60;;;2.40;;
61036;SDS011;57313;47.040;15.498;2022-07-11T05:19:15;6.78;;;2.70;;
61036;SDS011;57313;47.040;15.498;2022-07-11T05:21:42;6.88;;;2.25;;
61036;SDS011;57313;47.040;15.498;2022-07-11T05:24:10;7.90;;;2.38;;
61036;SDS011;57313;47.040;15.498;2022-07-11T05:26:39;6.78;;;2.47;;
61036;SDS011;57313;47.040;15.498;2022-07-11T05:29:06;9.88;;;2.90;;
61036;SDS011;57313;47.040;15.498;2022-07-11T05:31:34;11.05;;;2.45;;
61036;SDS011;57313;47.040;15.498;2022-07-11T05:34:01;10.52;;;2.50;;
61036;SDS011;57313;47.040;15.498;2022-07-11T05:36:29;10.85;;;2.67;;
61036;SDS011;57313;47.040;15.498;2022-07-11T05:38:56;7.28;;;2.78;;
61036;SDS011;57313;47.040;15.498;2022-07-11T05:41:24;8.90;;;3.03;;
61036;SDS011;57313;47.040;15.498;2022-07-11T05:43:53;11.63;;;3.05;;
61036;SDS011;57313;47.040;15.498;2022-07-11T05:46:21;11.77;;;2.85;;
61036;SDS011;57313;47.040;15.498;2022-07-11T05:48:48;7.80;;;2.50;;
61036;SDS011;57313;47.040;15.498;2022-07-11T05:51:22;17.08;;;3.40;;
61036;SDS011;57313;47.040;15.498;2022-07-11T05:53:49;11.98;;;3.38;;
61036;SDS011;57313;47.040;15.498;2022-07-11T05:56:17;15.57;;;2.53;;
61036;SDS011;57313;47.040;15.498;2022-07-11T05:58:44;8.55;;;2.40;;
61036;SDS011;57313;47.040;15.498;2022-07-11T06:01:12;5.72;;;1.90;;
61036;SDS011;57313;47.040;15.498;2022-07-11T06:03:39;8.73;;;2.42;;
61036;SDS011;57313;47.040;15.498;2022-07-11T06:06:07;9.20;;;2.28;;
61036;SDS011;57313;47.040;15.498;2022-07-11T06:08:34;8.45;;;2.60;;
61036;SDS011;57313;47.040;15.498;2022-07-11T06:11:01;11.35;;;2.70;;
61036;SDS011;57313;47.040;15.498;2022-07-11T06:13:28;6.63;;;2.08;;
61036;SDS011;57313;47.040;15.498;2022-07-11T06:15:55;5.60;;;1.90;;
61036;SDS011;57313;47.040;15.498;2022-07-11T06:18:24;11.27;;;1.92;;
61036;SDS011;57313;47.040;15.498;2022-07-11T06:20:51;9.65;;;2.17;;
61036;SDS011;57313;47.040;15.498;2022-07-11T06:23:19;6.55;;;1.90;;
61036;SDS011;57313;47.040;15.498;2022-07-11T06:25:46;6.95;;;1.98;;
61036;SDS011;57313;47.040;15.498;2022-07-11T06:28:13;8.68;;;2.10;;
61036;SDS011;57313;47.040;15.498;2022-07-11T06:30:40;7.03;;;2.00;;
61036;SDS011;57313;47.040;15.498;2022-07-11T06:33:08;5.82;;;2.03;;
61036;SDS011;57313;47.040;15.498;2022-07-11T06:35:36;8.65;;;2.17;;
61036;SDS011;57313;47.040;15.498;2022-07-11T06:38:04;10.48;;;2.22;;
61036;SDS011;57313;47.040;15.498;2022-07-11T06:40:31;8.13;;;1.80;;
61036;SDS011;57313;47.040;15.498;2022-07-11T06:42:58;6.22;;;1.70;;
61036;SDS011;57313;47.040;15.498;2022-07-11T06:45:25;6.40;;;1.50;;
61036;SDS011;57313;47.040;15.498;2022-07-11T06:47:52;7.40;;;1.80;;
61036;SDS011;57313;47.040;15.498;2022-07-11T06:50:20;8.82;;;1.50;;
61036;SDS011;57313;47.040;15.498;2022-07-11T06:52:48;6.13;;;1.75;;
61036;SDS011;57313;47.040;15.498;2022-07-11T06:55:16;5.75;;;1.35;;
61036;SDS011;57313;47.040;15.498;2022-07-11T06:57:43;4.65;;;1.20;;
61036;SDS011;57313;47.040;15.498;2022-07-11T07:00:30;7.90;;;1.17;;
61036;SDS011;57313;47.040;15.498;2022-07-11T07:02:58;6.28;;;1.40;;
61036;SDS011;57313;47.040;15.498;2022-07-11T07:05:32;4.72;;;1.30;;
61036;SDS011;57313;47.040;15.498;2022-07-11T07:08:01;4.95;;;1.40;;
61036;SDS011;57313;47.040;15.498;2022-07-11T07:10:28;4.43;;;1.20;;
61036;SDS011;57313;47.040;15.498;2022-07-11T07:12:56;12.43;;;1.50;;
61036;SDS011;57313;47.040;15.498;2022-07-11T07:15:23;9.95;;;2.08;;
61036;SDS011;57313;47.040;15.498;2022-07-11T07:17:50;5.22;;;1.25;;
61036;SDS011;57313;47.040;15.498;2022-07-11T07:20:17;6.82;;;1.60;;
61036;SDS011;57313;47.040;15.498;2022-07-11T07:22:45;3.60;;;1.02;;
61036;SDS011;57313;47.040;15.498;2022-07-11T07:25:14;4.82;;;1.15;;
61036;SDS011;57313;47.040;15.498;2022-07-11T07:27:41;5.78;;;1.15;;
61036;SDS011;57313;47.040;15.498;2022-07-11T07:30:09;8.20;;;1.30;;
61036;SDS011;57313;47.040;15.498;2022-07-11T07:32:36;4.20;;;0.90;;
61036;SDS011;57313;47.040;15.498;2022-07-11T07:35:04;4.32;;;1.25;;
61036;SDS011;57313;47.040;15.498;2022-07-11T07:37:32;5.38;;;1.20;;
61036;SDS011;57313;47.040;15.498;2022-07-11T07:39:59;5.22;;;1.38;;
61036;SDS011;57313;47.040;15.498;2022-07-11T07:42:27;4.38;;;1.30;;
61036;SDS011;57313;47.040;15.498;2022-07-11T07:44:54;3.67;;;1.23;;
61036;SDS011;57313;47.040;15.498;2022-07-11T07:47:21;5.78;;;1.42;;
61036;SDS011;57313;47.040;15.498;2022-07-11T07:49:49;3.47;;;1.02;;
61036;SDS011;57313;47.040;15.498;2022-07-11T07:52:16;5.28;;;1.08;;
61036;SDS011;57313;47.040;15.498;2022-07-11T07:54:43;3.53;;;1.10;;
61036;SDS011;57313;47.040;15.498;2022-07-11T07:57:10;4.85;;;1.10;;
61036;SDS011;57313;47.040;15.498;2022-07-11T07:59:39;4.90;;;1.20;;
61036;SDS011;57313;47.040;15.498;2022-07-11T08:02:06;4.68;;;1.20;;
61036;SDS011;57313;47.040;15.498;2022-07-11T08:04:34;6.50;;;1.40;;
61036;SDS011;57313;47.040;15.498;2022-07-11T08:07:01;5.38;;;1.27;;
61036;SDS011;57313;47.040;15.498;2022-07-11T08:09:29;4.57;;;1.30;;
61036;SDS011;57313;47.040;15.498;2022-07-11T08:11:56;4.15;;;1.30;;
61036;SDS011;57313;47.040;15.498;2022-07-11T08:14:23;3.13;;;1.13;;
61036;SDS011;57313;47.040;15.498;2022-07-11T08:16:52;3.38;;;1.00;;
61036;SDS011;57313;47.040;15.498;2022-07-11T08:19:19;4.32;;;1.10;;
61036;SDS011;57313;47.040;15.498;2022-07-11T08:21:46;5.35;;;1.20;;
61036;SDS011;57313;47.040;15.498;2022-07-11T08:24:13;3.40;;;1.00;;
61036;SDS011;57313;47.040;15.498;2022-07-11T08:26:40;6.43;;;1.10;;
61036;SDS011;57313;47.040;15.498;2022-07-11T08:29:07;4.20;;;1.10;;
61036;SDS011;57313;47.040;15.498;2022-07-11T08:31:34;5.75;;;1.30;;
61036;SDS011;57313;47.040;15.498;2022-07-11T08:34:03;4.30;;;1.00;;
61036;SDS011;57313;47.040;15.498;2022-07-11T08:36:30;3.25;;;1.00;;
61036;SDS011;57313;47.040;15.498;2022-07-11T08:38:58;3.42;;;1.08;;
61036;SDS011;57313;47.040;15.498;2022-07-11T08:41:26;4.75;;;1.10;;
61036;SDS011;57313;47.040;15.498;2022-07-11T08:43:53;6.32;;;1.10;;
61036;SDS011;57313;47.040;15.498;2022-07-11T08:46:20;3.00;;;0.80;;
61036;SDS011;57313;47.040;15.498;2022-07-11T08:48:48;3.03;;;0.80;;
61036;SDS011;57313;47.040;15.498;2022-07-11T08:51:18;7.00;;;1.25;;
61036;SDS011;57313;47.040;15.498;2022-07-11T08:53:45;2.85;;;1.05;;
61036;SDS011;57313;47.040;15.498;2022-07-11T08:56:12;3.88;;;0.90;;
61036;SDS011;57313;47.040;15.498;2022-07-11T08:58:40;4.75;;;1.02;;
61036;SDS011;57313;47.040;15.498;2022-07-11T09:01:19;2.97;;;0.80;;
61036;SDS011;57313;47.040;15.498;2022-07-11T09:03:51;2.80;;;0.80;;
61036;SDS011;57313;47.040;15.498;2022-07-11T09:06:21;3.28;;;0.75;;
61036;SDS011;57313;47.040;15.498;2022-07-11T09:08:48;2.97;;;0.90;;
61036;SDS011;57313;47.040;15.498;2022-07-11T09:11:15;1.98;;;0.70;;
61036;SDS011;57313;47.040;15.498;2022-07-11T09:13:42;1.50;;;0.68;;
61036;SDS011;57313;47.040;15.498;2022-07-11T09:16:10;4.72;;;0.70;;
61036;SDS011;57313;47.040;15.498;2022-07-11T09:18:37;5.28;;;1.42;;
61036;SDS011;57313;47.040;15.498;2022-07-11T09:21:06;3.63;;;0.95;;
61036;SDS011;57313;47.040;15.498;2022-07-11T09:23:36;3.17;;;0.80;;
61036;SDS011;57313;47.040;15.498;2022-07-11T09:26:03;6.47;;;0.80;;
61036;SDS011;57313;47.040;15.498;2022-07-11T09:28:31;5.13;;;1.15;;
61036;SDS011;57313;47.040;15.498;2022-07-11T09:30:58;5.75;;;1.10;;
61036;SDS011;57313;47.040;15.498;2022-07-11T09:33:45;3.45;;;0.77;;
61036;SDS011;57313;47.040;15.498;2022-07-11T09:36:32;2.55;;;0.80;;
61036;SDS011;57313;47.040;15.498;2022-07-11T09:39:02;3.22;;;0.82;;
61036;SDS011;57313;47.040;15.498;2022-07-11T09:41:31;1.90;;;0.60;;
61036;SDS011;57313;47.040;15.498;2022-07-11T09:44:11;3.17;;;0.68;;
61036;SDS011;57313;47.040;15.498;2022-07-11T09:46:40;2.05;;;0.65;;
61036;SDS011;57313;47.040;15.498;2022-07-11T09:49:08;2.33;;;0.60;;
61036;SDS011;57313;47.040;15.498;2022-07-11T09:51:36;2.85;;;0.60;;
61036;SDS011;57313;47.040;15.498;2022-07-11T09:54:06;6.72;;;0.63;;
61036;SDS011;57313;47.040;15.498;2022-07-11T09:56:37;1.63;;;0.50;;
61036;SDS011;57313;47.040;15.498;2022-07-11T09:59:22;8.68;;;0.65;;
61036;SDS011;57313;47.040;15.498;2022-07-11T10:01:49;1.92;;;0.60;;
61036;SDS011;57313;47.040;15.498;2022-07-11T10:04:17;1.17;;;0.45;;
61036;SDS011;57313;47.040;15.498;2022-07-11T10:06:45;2.08;;;0.70;;
61036;SDS011;57313;47.040;15.498;2022-07-11T10:09:14;3.97;;;0.77;;
61036;SDS011;57313;47.040;15.498;2022-07-11T10:11:41;1.75;;;0.50;;
61036;SDS011;57313;47.040;15.498;2022-07-11T10:14:08;1.65;;;0.60;;
61036;SDS011;57313;47.040;15.498;2022-07-11T10:16:40;3.15;;;0.70;;
61036;SDS011;57313;47.040;15.498;2022-07-11T10:19:20;2.05;;;0.65;;
61036;SDS011;57313;47.040;15.498;2022-07-11T10:22:02;3.88;;;0.60;;
61036;SDS011;57313;47.040;15.498;2022-07-11T10:24:38;3.03;;;0.73;;
61036;SDS011;57313;47.040;15.498;2022-07-11T10:27:13;1.38;;;0.50;;
61036;SDS011;57313;47.040;15.498;2022-07-11T10:29:49;2.58;;;0.63;;
61036;SDS011;57313;47.040;15.498;2022-07-11T10:32:17;3.42;;;0.70;;
61036;SDS011;57313;47.040;15.498;2022-07-11T10:34:44;3.40;;;0.60;;
61036;SDS011;57313;47.040;15.498;2022-07-11T10:37:12;2.75;;;0.50;;
61036;SDS011;57313;47.040;15.498;2022-07-11T10:39:56;3.08;;;0.55;;
61036;SDS011;57313;47.040;15.498;2022-07-11T10:42:25;2.72;;;0.68;;
61036;SDS011;57313;47.040;15.498;2022-07-11T10:45:06;2.38;;;0.60;;
61036;SDS011;57313;47.040;15.498;2022-07-11T10:47:35;3.05;;;0.80;;
61036;SDS011;57313;47.040;15.498;2022-07-11T10:50:23;2.28;;;0.60;;
61036;SDS011;57313;47.040;15.498;2022-07-11T10:52:58;2.40;;;0.60;;
61036;SDS011;57313;47.040;15.498;2022-07-11T10:55:36;4.57;;;0.90;;
61036;SDS011;57313;47.040;15.498;2022-07-11T10:58:06;1.73;;;0.50;;
61036;SDS011;57313;47.040;15.498;2022-07-11T11:00:37;1.40;;;0.50;;
61036;SDS011;57313;47.040;15.498;2022-07-11T11:03:05;2.00;;;0.52;;
61036;SDS011;57313;47.040;15.498;2022-07-11T11:05:39;2.65;;;0.70;;
61036;SDS011;57313;47.040;15.498;2022-07-11T11:14:20;2.40;;;0.70;;
61036;SDS011;57313;47.040;15.498;2022-07-11T11:16:51;3.00;;;0.60;;
61036;SDS011;57313;47.040;15.498;2022-07-11T11:22:19;2.38;;;0.55;;
61036;SDS011;57313;47.040;15.498;2022-07-11T11:24:48;2.03;;;0.65;;
61036;SDS011;57313;47.040;15.498;2022-07-11T11:27:38;4.15;;;0.80;;
61036;SDS011;57313;47.040;15.498;2022-07-11T11:30:27;3.22;;;0.60;;
61036;SDS011;57313;47.040;15.498;2022-07-11T11:32:54;3.03;;;0.75;;
61036;SDS011;57313;47.040;15.498;2022-07-11T11:35:22;2.83;;;0.70;;
61036;SDS011;57313;47.040;15.498;2022-07-11T11:37:56;4.40;;;0.80;;
61036;SDS011;57313;47.040;15.498;2022-07-11T11:40:24;5.53;;;0.80;;
61036;SDS011;57313;47.040;15.498;2022-07-11T11:42:53;3.03;;;0.80;;
61036;SDS011;57313;47.040;15.498;2022-07-11T11:45:20;4.82;;;1.17;;
61036;SDS011;57313;47.040;15.498;2022-07-11T11:47:47;3.72;;;0.95;;
61036;SDS011;57313;47.040;15.498;2022-07-11T11:50:15;2.70;;;0.70;;
61036;SDS011;57313;47.040;15.498;2022-07-11T11:52:42;6.13;;;0.90;;
61036;SDS011;57313;47.040;15.498;2022-07-11T11:55:09;4.57;;;0.85;;
61036;SDS011;57313;47.040;15.498;2022-07-11T11:57:36;5.07;;;0.82;;
61036;SDS011;57313;47.040;15.498;2022-07-11T12:00:17;4.82;;;0.70;;
61036;SDS011;57313;47.040;15.498;2022-07-11T12:02:56;3.45;;;0.88;;
61036;SDS011;57313;47.040;15.498;2022-07-11T12:05:23;4.28;;;0.80;;
61036;SDS011;57313;47.040;15.498;2022-07-11T12:07:51;3.58;;;0.90;;
61036;SDS011;57313;47.040;15.498;2022-07-11T12:10:19;2.58;;;0.70;;
61036;SDS011;57313;47.040;15.498;2022-07-11T12:12:47;3.17;;;0.60;;
61036;SDS011;57313;47.040;15.498;2022-07-11T12:15:28;2.83;;;0.57;;
61036;SDS011;57313;47.040;15.498;2022-07-11T12:17:58;5.65;;;0.85;;
61036;SDS011;57313;47.040;15.498;2022-07-11T12:20:36;2.33;;;0.70;;
61036;SDS011;57313;47.040;15.498;2022-07-11T12:23:06;3.33;;;0.68;;
61036;SDS011;57313;47.040;15.498;2022-07-11T12:28:07;1.90;;;0.50;;
61036;SDS011;57313;47.040;15.498;2022-07-11T12:30:36;1.27;;;0.57;;
61036;SDS011;57313;47.040;15.498;2022-07-11T12:33:07;1.73;;;0.60;;
61036;SDS011;57313;47.040;15.498;2022-07-11T12:35:36;2.45;;;0.70;;
61036;SDS011;57313;47.040;15.498;2022-07-11T12:38:03;5.03;;;1.10;;
61036;SDS011;57313;47.040;15.498;2022-07-11T12:40:30;4.03;;;0.90;;
61036;SDS011;57313;47.040;15.498;2022-07-11T12:42:57;3.58;;;0.90;;
61036;SDS011;57313;47.040;15.498;2022-07-11T12:45:24;3.30;;;1.00;;
61036;SDS011;57313;47.040;15.498;2022-07-11T12:47:53;3.08;;;0.80;;
61036;SDS011;57313;47.040;15.498;2022-07-11T12:50:21;6.25;;;0.90;;
61036;SDS011;57313;47.040;15.498;2022-07-11T12:52:50;2.03;;;0.70;;
61036;SDS011;57313;47.040;15.498;2022-07-11T12:55:19;4.07;;;0.80;;
61036;SDS011;57313;47.040;15.498;2022-07-11T12:58:00;1.73;;;0.60;;
61036;SDS011;57313;47.040;15.498;2022-07-11T13:00:32;3.53;;;0.95;;
61036;SDS011;57313;47.040;15.498;2022-07-11T13:03:00;3.25;;;0.70;;
61036;SDS011;57313;47.040;15.498;2022-07-11T13:05:28;3.75;;;0.80;;
61036;SDS011;57313;47.040;15.498;2022-07-11T13:07:55;2.40;;;0.70;;
61036;SDS011;57313;47.040;15.498;2022-07-11T13:10:22;3.50;;;0.70;;
61036;SDS011;57313;47.040;15.498;2022-07-11T13:12:51;2.88;;;0.75;;
61036;SDS011;57313;47.040;15.498;2022-07-11T13:15:19;2.63;;;0.70;;
61036;SDS011;57313;47.040;15.498;2022-07-11T13:17:48;4.78;;;0.60;;
61036;SDS011;57313;47.040;15.498;2022-07-11T13:20:19;2.78;;;0.75;;
61036;SDS011;57313;47.040;15.498;2022-07-11T13:22:47;6.40;;;1.02;;
61036;SDS011;57313;47.040;15.498;2022-07-11T13:25:16;3.33;;;0.90;;
61036;SDS011;57313;47.040;15.498;2022-07-11T13:27:45;4.22;;;1.00;;
61036;SDS011;57313;47.040;15.498;2022-07-11T13:30:15;4.55;;;0.80;;
61036;SDS011;57313;47.040;15.498;2022-07-11T13:32:43;2.03;;;0.70;;
61036;SDS011;57313;47.040;15.498;2022-07-11T13:35:11;4.53;;;0.88;;
61036;SDS011;57313;47.040;15.498;2022-07-11T13:37:44;4.13;;;0.80;;
61036;SDS011;57313;47.040;15.498;2022-07-11T13:40:14;2.97;;;0.80;;
61036;SDS011;57313;47.040;15.498;2022-07-11T13:42:42;2.53;;;1.00;;
61036;SDS011;57313;47.040;15.498;2022-07-11T13:45:09;4.90;;;0.90;;
61036;SDS011;57313;47.040;15.498;2022-07-11T13:47:37;3.05;;;0.90;;
61036;SDS011;57313;47.040;15.498;2022-07-11T13:50:04;3.10;;;0.73;;
61036;SDS011;57313;47.040;15.498;2022-07-11T13:52:32;3.75;;;0.90;;
61036;SDS011;57313;47.040;15.498;2022-07-11T13:55:01;2.38;;;0.70;;
61036;SDS011;57313;47.040;15.498;2022-07-11T13:57:28;6.20;;;0.95;;
61036;SDS011;57313;47.040;15.498;2022-07-11T13:59:56;2.47;;;0.80;;
61036;SDS011;57313;47.040;15.498;2022-07-11T14:02:23;3.95;;;0.88;;
61036;SDS011;57313;47.040;15.498;2022-07-11T14:04:51;7.68;;;0.90;;
61036;SDS011;57313;47.040;15.498;2022-07-11T14:07:18;3.90;;;0.82;;
61036;SDS011;57313;47.040;15.498;2022-07-11T14:09:45;2.53;;;0.70;;
61036;SDS011;57313;47.040;15.498;2022-07-11T14:12:14;5.28;;;0.80;;
61036;SDS011;57313;47.040;15.498;2022-07-11T14:14:41;2.55;;;0.65;;
61036;SDS011;57313;47.040;15.498;2022-07-11T14:17:09;2.25;;;0.68;;
61036;SDS011;57313;47.040;15.498;2022-07-11T14:19:36;3.22;;;0.80;;
61036;SDS011;57313;47.040;15.498;2022-07-11T14:22:04;1.73;;;0.60;;
61036;SDS011;57313;47.040;15.498;2022-07-11T14:24:31;4.13;;;0.70;;
61036;SDS011;57313;47.040;15.498;2022-07-11T14:26:59;5.25;;;0.80;;
61036;SDS011;57313;47.040;15.498;2022-07-11T14:29:28;1.85;;;0.63;;
61036;SDS011;57313;47.040;15.498;2022-07-11T14:31:55;2.20;;;0.80;;
61036;SDS011;57313;47.040;15.498;2022-07-11T14:34:23;4.40;;;0.82;;
61036;SDS011;57313;47.040;15.498;2022-07-11T14:36:50;2.47;;;0.80;;
61036;SDS011;57313;47.040;15.498;2022-07-11T14:39:17;1.90;;;0.60;;
61036;SDS011;57313;47.040;15.498;2022-07-11T14:41:45;3.78;;;0.90;;
61036;SDS011;57313;47.040;15.498;2022-07-11T14:44:12;4.07;;;0.90;;
61036;SDS011;57313;47.040;15.498;2022-07-11T14:46:41;2.70;;;0.80;;
61036;SDS011;57313;47.040;15.498;2022-07-11T14:49:13;3.92;;;0.70;;
61036;SDS011;57313;47.040;15.498;2022-07-11T14:51:41;4.00;;;0.75;;
61036;SDS011;57313;47.040;15.498;2022-07-11T14:54:21;5.05;;;0.98;;